createdAt,value
2019-03-12T11:55:20.463Z,19.20
2019-03-12T11:57:47.260Z,18.10
2019-03-12T12:00:28.160Z,16.20
2019-03-12T12:03:00.422Z,14.70
2019-03-12T12:05:23.844Z,13.80
2019-03-12T12:07:50.448Z,13.30
2019-03-12T12:10:17.283Z,12.70
2019-03-12T12:12:44.014Z,12.30
2019-03-12T12:15:11.096Z,12.70
2019-03-12T12:17:37.711Z,13.30
2019-03-12T12:20:04.518Z,14.20
2019-03-12T12:22:31.343Z,15.00
2019-03-12T12:24:58.444Z,15.20
2019-03-12T12:27:25.011Z,15.00
2019-03-12T12:29:51.673Z,14.90
2019-03-12T12:32:18.251Z,15.00
2019-03-12T12:34:44.844Z,15.00
2019-03-12T12:37:13.729Z,14.30
2019-03-12T12:39:40.058Z,13.80
2019-03-12T12:42:06.681Z,13.50
2019-03-12T12:44:33.289Z,13.40
2019-03-12T12:46:59.929Z,13.70
2019-03-12T12:49:26.566Z,14.00
2019-03-12T12:51:53.228Z,14.50
2019-03-12T12:54:20.255Z,14.30
2019-03-12T12:56:46.858Z,13.80
2019-03-12T12:59:13.598Z,13.50
2019-03-12T13:01:40.276Z,13.10
2019-03-12T13:04:06.882Z,12.50
2019-03-12T13:06:33.639Z,12.30
2019-03-12T13:09:00.403Z,12.40
2019-03-12T13:11:27.164Z,12.50
2019-03-12T13:13:54.107Z,12.70
2019-03-12T13:16:25.501Z,12.60
2019-03-12T13:18:49.219Z,12.70
2019-03-12T13:21:15.908Z,12.90
2019-03-12T13:23:42.480Z,13.00
2019-03-12T13:26:09.145Z,13.10
2019-03-12T13:28:35.772Z,12.50
2019-03-12T13:31:02.393Z,12.30
2019-03-12T13:33:29.057Z,12.30
2019-03-12T13:35:55.673Z,11.90
2019-03-12T13:38:22.526Z,11.60
2019-03-12T13:40:49.706Z,11.50
2019-03-12T13:43:16.859Z,11.20
2019-03-12T13:45:43.573Z,11.10
2019-03-12T13:48:10.424Z,11.10
2019-03-12T13:50:37.509Z,11.10
2019-03-12T13:53:04.204Z,11.50
2019-03-12T13:55:30.952Z,12.00
2019-03-12T13:57:57.692Z,12.40
2019-03-12T14:00:24.288Z,12.30
2019-03-12T14:02:51.276Z,12.20
2019-03-12T14:05:18.162Z,12.20
2019-03-12T14:07:45.167Z,12.10
2019-03-12T14:10:14.385Z,11.90
2019-03-12T14:12:41.112Z,11.50
2019-03-12T14:15:09.804Z,11.30
2019-03-12T14:17:36.423Z,11.00
2019-03-12T14:20:39.848Z,10.90
2019-03-12T14:23:06.671Z,11.10
2019-03-12T14:25:33.534Z,11.30
2019-03-12T14:28:00.164Z,11.60
2019-03-12T14:30:26.792Z,11.50
2019-03-12T14:32:53.516Z,11.30
2019-03-12T14:35:20.565Z,11.30
2019-03-12T14:37:47.137Z,11.00
2019-03-12T14:40:13.955Z,10.90
2019-03-12T14:42:40.621Z,11.00
2019-03-12T14:45:10.446Z,11.00
2019-03-12T14:47:37.515Z,10.90
2019-03-12T14:50:06.107Z,10.90
2019-03-12T14:52:36.753Z,10.70
2019-03-12T14:55:04.336Z,10.70
2019-03-12T14:57:30.968Z,10.60
2019-03-12T14:59:57.541Z,10.50
2019-03-12T15:02:24.319Z,10.40
2019-03-12T15:04:50.931Z,10.30
2019-03-12T15:07:17.536Z,10.40
2019-03-12T15:09:44.167Z,10.50
2019-03-12T15:12:12.071Z,10.50
2019-03-12T15:14:38.985Z,10.40
2019-03-12T15:17:05.606Z,10.40
2019-03-12T15:19:32.243Z,10.40
2019-03-12T15:21:58.840Z,10.50
2019-03-12T15:24:25.428Z,10.30
2019-03-12T15:26:52.084Z,10.10
2019-03-12T15:29:18.744Z,10.10
2019-03-12T15:31:45.420Z,10.10
2019-03-12T15:34:12.776Z,10.10
2019-03-12T15:36:39.557Z,10.20
2019-03-12T15:39:07.331Z,10.10
2019-03-12T15:41:33.964Z,10.10
2019-03-12T15:44:01.567Z,10.00
2019-03-12T15:46:28.200Z,10.00
2019-03-12T15:48:54.905Z,10.00
2019-03-12T15:51:21.607Z,9.80
2019-03-12T15:53:48.184Z,9.70
2019-03-12T15:56:15.127Z,9.70
2019-03-12T15:58:41.804Z,9.50
2019-03-12T16:01:08.484Z,9.40
2019-03-12T16:03:35.201Z,9.30
2019-03-12T16:06:01.796Z,9.30
2019-03-12T16:08:28.413Z,9.20
2019-03-12T16:10:58.300Z,9.20
2019-03-12T16:13:23.873Z,9.10
2019-03-12T16:15:50.590Z,9.10
2019-03-12T16:18:17.261Z,9.10
2019-03-12T16:20:43.849Z,9.00
2019-03-12T16:23:10.443Z,9.00
2019-03-12T16:25:37.077Z,8.90
2019-03-12T16:28:03.804Z,8.90
2019-03-12T16:30:30.423Z,8.80
2019-03-12T16:32:57.061Z,8.80
2019-03-12T16:35:23.681Z,8.80
2019-03-12T16:37:50.318Z,8.60
2019-03-12T16:40:16.940Z,8.60
2019-03-12T16:42:43.582Z,8.60
2019-03-12T16:45:10.320Z,8.60
2019-03-12T16:47:37.028Z,8.50
2019-03-12T16:50:04.095Z,8.50
2019-03-12T16:52:30.681Z,8.50
2019-03-12T16:54:57.263Z,8.40
2019-03-12T16:57:23.906Z,8.40
2019-03-12T16:59:50.567Z,8.30
2019-03-12T17:02:17.213Z,8.30
2019-03-12T17:04:43.863Z,8.30
2019-03-12T17:07:10.498Z,8.30
2019-03-12T17:09:38.946Z,8.30
2019-03-12T17:12:05.825Z,8.20
2019-03-12T17:14:38.693Z,8.20
2019-03-12T17:17:01.033Z,8.20
2019-03-12T17:19:27.996Z,8.10
2019-03-12T17:21:54.654Z,8.00
2019-03-12T17:24:21.737Z,8.00
2019-03-12T17:26:48.328Z,8.00
2019-03-12T17:29:16.190Z,8.00
2019-03-12T17:31:43.256Z,8.00
2019-03-12T17:34:10.246Z,8.00
2019-03-12T17:36:37.104Z,8.00
2019-03-12T17:39:05.695Z,8.00
2019-03-12T17:41:32.355Z,8.10
2019-03-12T17:43:58.987Z,8.00
2019-03-12T17:46:25.716Z,8.00
2019-03-12T17:48:52.367Z,8.00
2019-03-12T17:51:19.103Z,8.00
2019-03-12T17:53:45.774Z,8.00
2019-03-12T17:56:12.453Z,8.00
2019-03-12T17:58:58.950Z,8.00
2019-03-12T18:01:29.752Z,7.90
2019-03-12T18:03:54.507Z,7.90
2019-03-12T18:06:21.326Z,7.90
2019-03-12T18:08:48.004Z,7.90
2019-03-12T18:11:14.629Z,7.80
2019-03-12T18:13:41.262Z,7.80
2019-03-12T18:16:07.975Z,7.90
2019-03-12T18:18:35.280Z,7.80
2019-03-12T18:21:01.927Z,7.70
2019-03-12T18:23:28.858Z,7.60
2019-03-12T18:25:55.556Z,7.60
2019-03-12T18:28:22.420Z,7.50
2019-03-12T18:30:51.273Z,7.50
2019-03-12T18:33:18.721Z,7.50
2019-03-12T18:35:45.440Z,7.50
2019-03-12T18:38:12.032Z,7.40
2019-03-12T18:40:38.900Z,7.40
2019-03-12T18:43:05.617Z,7.30
2019-03-12T18:45:32.377Z,7.30
2019-03-12T18:47:59.238Z,7.30
2019-03-12T18:50:26.067Z,7.20
2019-03-12T18:52:52.781Z,7.30
2019-03-12T18:55:39.553Z,7.20
2019-03-12T18:58:06.282Z,7.20
2019-03-12T19:00:33.036Z,7.20
2019-03-12T19:02:59.823Z,7.20
2019-03-12T19:05:28.227Z,7.20
2019-03-12T19:07:55.141Z,7.30
2019-03-12T19:10:22.127Z,7.40
2019-03-12T19:12:49.007Z,7.40
2019-03-12T19:15:16.691Z,7.40
2019-03-12T19:17:43.563Z,7.40
2019-03-12T19:20:10.421Z,7.40
2019-03-12T19:22:37.151Z,7.40
2019-03-12T19:25:04.390Z,7.40
2019-03-12T19:27:31.189Z,7.40
2019-03-12T19:29:57.872Z,7.40
2019-03-12T19:32:30.784Z,7.40
2019-03-12T19:34:57.368Z,7.40
2019-03-12T19:37:24.065Z,7.50
2019-03-12T19:39:50.813Z,7.40
2019-03-12T19:42:17.411Z,7.50
2019-03-12T19:44:44.123Z,7.40
2019-03-12T19:47:11.154Z,7.50
2019-03-12T19:49:37.879Z,7.50
2019-03-12T19:52:06.203Z,7.50
2019-03-12T19:54:33.249Z,7.50
2019-03-12T19:57:00.049Z,7.50
2019-03-12T19:59:26.780Z,7.40
2019-03-12T20:01:58.858Z,7.40
2019-03-12T20:04:25.675Z,7.30
2019-03-12T20:06:52.696Z,7.20
2019-03-12T20:09:44.779Z,7.10
2019-03-12T20:12:42.996Z,7.00
2019-03-12T20:15:43.161Z,6.90
2019-03-12T20:18:55.048Z,6.80
2019-03-12T20:22:18.439Z,6.80
2019-03-12T20:25:22.314Z,6.80
2019-03-12T20:28:36.469Z,6.80
2019-03-12T20:31:54.887Z,6.80
2019-03-12T20:35:05.908Z,6.80
2019-03-12T20:38:23.264Z,6.80
2019-03-12T20:42:05.833Z,6.70
2019-03-12T20:45:12.785Z,6.70
2019-03-12T20:48:20.062Z,6.80
2019-03-12T20:51:43.421Z,6.80
2019-03-12T20:54:55.882Z,6.70
2019-03-12T20:57:57.416Z,6.70
2019-03-12T21:01:13.192Z,6.60
2019-03-12T21:04:22.471Z,6.60
2019-03-12T21:07:27.643Z,6.60
2019-03-12T21:10:31.450Z,6.60
2019-03-12T21:13:48.925Z,6.60
2019-03-12T21:17:00.585Z,6.60
2019-03-12T21:20:04.420Z,6.60
2019-03-12T21:22:56.197Z,6.60
2019-03-12T21:25:52.717Z,6.60
2019-03-12T21:28:54.910Z,6.60
2019-03-12T21:31:21.885Z,6.70
2019-03-12T21:33:48.719Z,6.70
2019-03-12T21:36:15.486Z,6.80
2019-03-12T21:38:42.224Z,6.80
2019-03-12T21:41:09.189Z,6.80
2019-03-12T21:43:35.870Z,6.80
2019-03-12T21:46:02.896Z,6.90
2019-03-12T21:48:29.915Z,6.90
2019-03-12T21:50:56.541Z,7.00
2019-03-12T21:53:23.151Z,7.00
2019-03-12T21:55:49.916Z,6.90
2019-03-12T21:58:16.523Z,7.00
2019-03-12T22:00:43.250Z,7.00
2019-03-12T22:03:10.146Z,7.00
2019-03-12T22:05:36.767Z,7.00
2019-03-12T22:08:04.631Z,7.00
2019-03-12T22:10:31.302Z,7.10
2019-03-12T22:12:58.012Z,7.00
2019-03-12T22:15:24.772Z,7.10
2019-03-12T22:17:51.474Z,7.10
2019-03-12T22:20:18.158Z,7.10
2019-03-12T22:22:49.636Z,7.10
2019-03-12T22:25:16.554Z,7.10
2019-03-12T22:27:43.438Z,7.10
2019-03-12T22:30:13.529Z,7.10
2019-03-12T22:32:43.363Z,7.10
2019-03-12T22:35:13.901Z,7.10
2019-03-12T22:37:44.363Z,7.10
2019-03-12T22:40:14.875Z,7.20
2019-03-12T22:42:41.769Z,7.10
2019-03-12T22:45:09.156Z,7.10
2019-03-12T22:47:37.111Z,7.20
2019-03-12T22:50:04.340Z,7.20
2019-03-12T22:52:31.071Z,7.20
2019-03-12T22:54:57.889Z,7.10
2019-03-12T22:57:24.517Z,7.10
2019-03-12T22:59:51.725Z,7.10
2019-03-12T23:02:18.520Z,7.10
2019-03-12T23:04:45.544Z,7.10
2019-03-12T23:07:12.302Z,7.20
2019-03-12T23:09:39.512Z,7.20
2019-03-12T23:12:06.167Z,7.30
2019-03-12T23:14:33.025Z,7.30
2019-03-12T23:16:59.771Z,7.30
2019-03-12T23:19:26.599Z,7.40
2019-03-12T23:21:53.278Z,7.40
2019-03-12T23:24:20.266Z,7.50
2019-03-12T23:26:46.957Z,7.50
2019-03-12T23:29:13.836Z,7.60
2019-03-12T23:31:40.627Z,7.60
2019-03-12T23:34:07.288Z,7.60
2019-03-12T23:36:34.012Z,7.70
2019-03-12T23:39:00.719Z,7.70
2019-03-12T23:41:27.341Z,7.80
2019-03-12T23:43:54.127Z,7.80
2019-03-12T23:46:20.920Z,7.80
2019-03-12T23:48:47.595Z,7.90
2019-03-12T23:51:14.416Z,7.90
2019-03-12T23:53:41.022Z,8.00
2019-03-12T23:56:07.993Z,8.00
2019-03-12T23:58:35.127Z,8.00
